To NAV CANADA Home Page Login to a new session Search on AWWS site Disclaimer Vers la page française équivalente Tips FAQ What's new on the site To the Forecasts and Observations / NOTAM section To "File a Flight Plan" website Publications and other links Update of the User's profile FIC Telephone Numbers My Weather Data Folder Route Weather Data Regional Weather Data Local Weather Data To the Forecasts and Observations / NOTAM section
Request Generated 11/13/2018 at 18:04:16 UTC . Weather information available at that time is displayed.

METAR/TAF

ESTEVAN REGIONAL/SK    

METAR CYEN 131800Z AUTO 27008KT BKN060 M01/M05 A3022 RMK WX MISG VIS MISG PCPN MISG SLP275=
METAR CYEN 131700Z AUTO 27008KT OVC110 M02/M05 A3023 RMK WX MISG VIS MISG PCPN MISG SLP277=
METAR CYEN 131600Z AUTO 24007KT BKN055 OVC069 M04/M07 A3023 RMK PRESFR WX MISG VIS MISG PCPN MISG SLP279=

TAF CYEN 131738Z 1318/1324 FCST CNCLD DUE SENSORS INOP
RMK FCST BASED ON AUTO OBS. NXT FCST WILL BE ISSUED AT 141145Z=
Your time UTC time
Weather data provided by Environment Canada and NAV CANADA